Time,TemperatureF,DewpointF,PressureIn,WindDirection,WindDirectionDegrees,WindSpeedMPH,WindSpeedGustMPH,Humidity,HourlyPrecipIn,Conditions,Clouds,dailyrainin,SolarRadiationWatts/m^2,SoftwareType,DateUTC
2013-05-18 00:22:00,45.0,15.0,-100.00,SSW,212,5.0,9.0,30,0.00,,,0.00,0.000000,,2013-05-18 06:22:00,
2013-05-18 00:32:00,45.0,15.0,-100.00,SSW,212,5.0,9.0,30,0.00,,,0.00,0.000000,,2013-05-18 06:32:00,
2013-05-18 00:42:00,45.0,15.0,-100.00,SSW,212,5.0,9.0,30,0.00,,,0.00,0.000000,,2013-05-18 06:42:00,
2013-05-18 00:52:00,43.0,20.0,-100.00,WSW,254,4.0,9.0,39,0.00,,,0.00,0.000000,,2013-05-18 06:52:00,
2013-05-18 01:12:00,43.0,20.0,-100.00,WSW,254,4.0,9.0,39,0.00,,,0.00,0.000000,,2013-05-18 07:12:00,
2013-05-18 01:21:00,43.0,20.0,-100.00,WSW,254,4.0,9.0,39,0.00,,,0.00,0.000000,,2013-05-18 07:21:00,
2013-05-18 01:32:00,43.0,20.0,-100.00,WSW,254,4.0,9.0,39,0.00,,,0.00,0.000000,,2013-05-18 07:32:00,
2013-05-18 01:42:00,43.0,20.0,-100.00,WSW,254,4.0,9.0,39,0.00,,,0.00,0.000000,,2013-05-18 07:42:00,
2013-05-18 01:52:00,36.0,26.0,-100.00,WNW,289,2.0,5.0,66,0.00,,,0.00,0.000000,,2013-05-18 07:52:00,
2013-05-18 02:21:00,36.0,26.0,-100.00,WNW,289,2.0,5.0,66,0.00,,,0.00,0.000000,,2013-05-18 08:21:00,
2013-05-18 02:32:00,36.0,26.0,-100.00,WNW,289,2.0,5.0,66,0.00,,,0.00,0.000000,,2013-05-18 08:32:00,
2013-05-18 02:42:00,36.0,26.0,-100.00,WNW,289,2.0,5.0,66,0.00,,,0.00,0.000000,,2013-05-18 08:42:00,
2013-05-18 02:52:00,32.0,26.0,-100.00,WNW,289,4.0,5.0,79,0.00,,,0.00,0.000000,,2013-05-18 08:52:00,
2013-05-18 03:11:00,32.0,26.0,-100.00,WNW,289,4.0,5.0,79,0.00,,,0.00,0.000000,,2013-05-18 09:11:00,
2013-05-18 03:22:00,32.0,26.0,-100.00,WNW,289,4.0,5.0,79,0.00,,,0.00,0.000000,,2013-05-18 09:22:00,
2013-05-18 03:33:00,32.0,26.0,-100.00,WNW,289,4.0,5.0,79,0.00,,,0.00,0.000000,,2013-05-18 09:33:00,
2013-05-18 03:43:00,32.0,26.0,-100.00,WNW,289,4.0,5.0,79,0.00,,,0.00,0.000000,,2013-05-18 09:43:00,
2013-05-18 03:52:00,29.0,26.0,-100.00,NW,309,1.0,4.0,88,0.00,,,0.00,0.000000,,2013-05-18 09:52:00,
2013-05-18 04:12:00,29.0,26.0,-100.00,NW,309,1.0,4.0,88,0.00,,,0.00,0.000000,,2013-05-18 10:12:00,
2013-05-18 04:23:00,29.0,26.0,-100.00,NW,309,1.0,4.0,88,0.00,,,0.00,0.000000,,2013-05-18 10:23:00,
2013-05-18 04:33:00,29.0,26.0,-100.00,NW,309,1.0,4.0,88,0.00,,,0.00,0.000000,,2013-05-18 10:33:00,
2013-05-18 04:42:00,29.0,26.0,-100.00,NW,309,1.0,4.0,88,0.00,,,0.00,0.000000,,2013-05-18 10:42:00,
2013-05-18 04:52:00,30.0,28.0,-100.00,WNW,285,5.0,6.0,92,0.00,,,0.00,0.000000,,2013-05-18 10:52:00,
2013-05-18 05:12:00,30.0,28.0,-100.00,WNW,285,5.0,6.0,92,0.00,,,0.00,0.000000,,2013-05-18 11:12:00,
2013-05-18 05:22:00,30.0,28.0,-100.00,WNW,285,5.0,6.0,92,0.00,,,0.00,0.000000,,2013-05-18 11:22:00,
2013-05-18 05:33:00,30.0,28.0,-100.00,WNW,285,5.0,6.0,92,0.00,,,0.00,0.000000,,2013-05-18 11:33:00,
2013-05-18 05:42:00,30.0,28.0,-100.00,WNW,285,5.0,6.0,92,0.00,,,0.00,0.000000,,2013-05-18 11:42:00,
2013-05-18 05:52:00,28.0,26.0,-100.00,West,274,2.0,4.0,92,0.00,,,0.00,1.000000,,2013-05-18 11:52:00,
2013-05-18 06:12:00,28.0,26.0,-100.00,West,274,2.0,4.0,92,0.00,,,0.00,1.000000,,2013-05-18 12:12:00,
2013-05-18 06:23:00,28.0,26.0,-100.00,West,274,2.0,4.0,92,0.00,,,0.00,1.000000,,2013-05-18 12:23:00,
2013-05-18 06:33:00,28.0,26.0,-100.00,West,274,2.0,4.0,92,0.00,,,0.00,1.000000,,2013-05-18 12:33:00,
2013-05-18 06:42:00,28.0,26.0,-100.00,West,274,2.0,4.0,92,0.00,,,0.00,1.000000,,2013-05-18 12:42:00,
2013-05-18 06:52:00,35.0,28.0,-100.00,WSW,256,5.0,8.0,76,0.00,,,0.00,19.000000,,2013-05-18 12:52:00,
2013-05-18 07:11:00,35.0,28.0,-100.00,WSW,256,5.0,8.0,76,0.00,,,0.00,19.000000,,2013-05-18 13:11:00,
2013-05-18 07:21:00,35.0,28.0,-100.00,WSW,256,5.0,8.0,76,0.00,,,0.00,19.000000,,2013-05-18 13:21:00,
2013-05-18 07:33:00,35.0,28.0,-100.00,WSW,256,5.0,8.0,76,0.00,,,0.00,19.000000,,2013-05-18 13:33:00,
2013-05-18 07:43:00,35.0,28.0,-100.00,WSW,256,5.0,8.0,76,0.00,,,0.00,19.000000,,2013-05-18 13:43:00,
2013-05-18 07:52:00,38.0,27.0,-100.00,SW,219,5.0,7.0,64,0.00,,,0.00,75.000000,,2013-05-18 13:52:00,
2013-05-18 08:12:00,38.0,27.0,-100.00,SW,219,5.0,7.0,64,0.00,,,0.00,75.000000,,2013-05-18 14:12:00,
2013-05-18 08:22:00,38.0,27.0,-100.00,SW,219,5.0,7.0,64,0.00,,,0.00,75.000000,,2013-05-18 14:22:00,
2013-05-18 08:33:00,38.0,27.0,-100.00,SW,219,5.0,7.0,64,0.00,,,0.00,75.000000,,2013-05-18 14:33:00,
2013-05-18 08:42:00,38.0,27.0,-100.00,SW,219,5.0,7.0,64,0.00,,,0.00,75.000000,,2013-05-18 14:42:00,
2013-05-18 08:52:00,42.0,28.0,-100.00,South,180,5.0,10.0,57,0.00,,,0.00,170.000000,,2013-05-18 14:52:00,
2013-05-18 09:13:00,42.0,28.0,-100.00,South,180,5.0,10.0,57,0.00,,,0.00,170.000000,,2013-05-18 15:13:00,
2013-05-18 09:23:00,42.0,28.0,-100.00,South,180,5.0,10.0,57,0.00,,,0.00,170.000000,,2013-05-18 15:23:00,
2013-05-18 09:33:00,42.0,28.0,-100.00,South,180,5.0,10.0,57,0.00,,,0.00,170.000000,,2013-05-18 15:33:00,
2013-05-18 09:43:00,42.0,28.0,-100.00,South,180,5.0,10.0,57,0.00,,,0.00,170.000000,,2013-05-18 15:43:00,
2013-05-18 09:52:00,48.0,28.0,-100.00,WSW,242,8.0,15.0,46,0.00,,,0.00,370.000000,,2013-05-18 15:52:00,
2013-05-18 10:22:00,48.0,28.0,-100.00,WSW,242,8.0,15.0,46,0.00,,,0.00,370.000000,,2013-05-18 16:22:00,
2013-05-18 10:33:00,48.0,28.0,-100.00,WSW,242,8.0,15.0,46,0.00,,,0.00,370.000000,,2013-05-18 16:33:00,
2013-05-18 10:42:00,48.0,28.0,-100.00,WSW,242,8.0,15.0,46,0.00,,,0.00,370.000000,,2013-05-18 16:42:00,
2013-05-18 10:52:00,49.0,27.0,-100.00,WSW,242,9.0,17.0,43,0.00,,,0.00,358.000000,,2013-05-18 16:52:00,
2013-05-18 11:22:00,49.0,27.0,-100.00,WSW,242,9.0,17.0,43,0.00,,,0.00,358.000000,,2013-05-18 17:22:00,
2013-05-18 11:32:00,49.0,27.0,-100.00,WSW,242,9.0,17.0,43,0.00,,,0.00,358.000000,,2013-05-18 17:32:00,
2013-05-18 11:42:00,49.0,27.0,-100.00,WSW,242,9.0,17.0,43,0.00,,,0.00,358.000000,,2013-05-18 17:42:00,
2013-05-18 11:52:00,50.0,28.0,-100.00,West,266,11.0,21.0,43,0.00,,,0.00,580.000000,,2013-05-18 17:52:00,
2013-05-18 12:12:00,50.0,28.0,-100.00,West,266,11.0,21.0,43,0.00,,,0.00,580.000000,,2013-05-18 18:12:00,
2013-05-18 12:21:00,50.0,28.0,-100.00,West,266,11.0,21.0,43,0.00,,,0.00,580.000000,,2013-05-18 18:21:00,
2013-05-18 12:32:00,50.0,28.0,-100.00,West,266,11.0,21.0,43,0.00,,,0.00,580.000000,,2013-05-18 18:32:00,
2013-05-18 12:42:00,50.0,28.0,-100.00,West,266,11.0,21.0,43,0.00,,,0.00,580.000000,,2013-05-18 18:42:00,
2013-05-18 12:52:00,52.0,28.0,-100.00,West,269,12.0,23.0,40,0.00,,,0.00,633.000000,,2013-05-18 18:52:00,
2013-05-18 13:12:00,52.0,28.0,-100.00,West,269,12.0,23.0,40,0.00,,,0.00,633.000000,,2013-05-18 19:12:00,
2013-05-18 13:22:00,52.0,28.0,-100.00,West,269,12.0,23.0,40,0.00,,,0.00,633.000000,,2013-05-18 19:22:00,
2013-05-18 13:32:00,52.0,28.0,-100.00,West,269,12.0,23.0,40,0.00,,,0.00,633.000000,,2013-05-18 19:32:00,
2013-05-18 13:42:00,52.0,28.0,-100.00,West,269,12.0,23.0,40,0.00,,,0.00,633.000000,,2013-05-18 19:42:00,
2013-05-18 13:52:00,46.0,28.0,-100.00,SSW,192,12.0,22.0,50,0.00,,,0.00,501.000000,,2013-05-18 19:52:00,
2013-05-18 14:11:00,46.0,28.0,-100.00,SSW,192,12.0,22.0,50,0.00,,,0.00,501.000000,,2013-05-18 20:11:00,
2013-05-18 14:22:00,46.0,28.0,-100.00,SSW,192,12.0,22.0,50,0.00,,,0.00,501.000000,,2013-05-18 20:22:00,
2013-05-18 14:32:00,46.0,28.0,-100.00,SSW,192,12.0,22.0,50,0.00,,,0.00,501.000000,,2013-05-18 20:32:00,
2013-05-18 14:42:00,46.0,28.0,-100.00,SSW,192,12.0,22.0,50,0.00,,,0.00,501.000000,,2013-05-18 20:42:00,
2013-05-18 14:52:00,47.0,26.0,-100.00,WSW,251,13.0,24.0,44,0.00,,,0.00,317.000000,,2013-05-18 20:52:00,
2013-05-18 15:21:00,47.0,26.0,-100.00,WSW,251,13.0,24.0,44,0.00,,,0.00,317.000000,,2013-05-18 21:21:00,
2013-05-18 15:32:00,47.0,26.0,-100.00,WSW,251,13.0,24.0,44,0.00,,,0.00,317.000000,,2013-05-18 21:32:00,
2013-05-18 15:43:00,47.0,26.0,-100.00,WSW,251,13.0,24.0,44,0.00,,,0.00,317.000000,,2013-05-18 21:43:00,
2013-05-18 15:52:00,40.0,32.0,-100.00,WNW,286,16.0,27.0,72,0.00,,,0.00,570.000000,,2013-05-18 21:52:00,
2013-05-18 16:23:00,40.0,32.0,-100.00,WNW,286,16.0,27.0,72,0.00,,,0.00,570.000000,,2013-05-18 22:23:00,
2013-05-18 16:33:00,40.0,32.0,-100.00,WNW,286,16.0,27.0,72,0.00,,,0.00,570.000000,,2013-05-18 22:33:00,
2013-05-18 16:42:00,40.0,32.0,-100.00,WNW,286,16.0,27.0,72,0.00,,,0.00,570.000000,,2013-05-18 22:42:00,
2013-05-18 16:52:00,39.0,35.0,-100.00,WNW,284,9.0,23.0,84,0.00,,,0.00,40.000000,,2013-05-18 22:52:00,
2013-05-18 17:12:00,39.0,35.0,-100.00,WNW,284,9.0,23.0,84,0.00,,,0.00,40.000000,,2013-05-18 23:12:00,
2013-05-18 17:22:00,39.0,35.0,-100.00,WNW,284,9.0,23.0,84,0.00,,,0.00,40.000000,,2013-05-18 23:22:00,
2013-05-18 17:32:00,39.0,35.0,-100.00,WNW,284,9.0,23.0,84,0.00,,,0.00,40.000000,,2013-05-18 23:32:00,
2013-05-18 17:41:00,39.0,35.0,-100.00,WNW,284,9.0,23.0,84,0.00,,,0.00,40.000000,,2013-05-18 23:41:00,
2013-05-18 18:12:00,38.0,35.0,-100.00,West,274,8.0,14.0,89,0.01,,,0.01,57.000000,,2013-05-19 00:12:00,
2013-05-18 18:21:00,38.0,35.0,-100.00,West,274,8.0,14.0,89,0.01,,,0.01,57.000000,,2013-05-19 00:21:00,
2013-05-18 18:32:00,38.0,35.0,-100.00,West,274,8.0,14.0,89,0.01,,,0.01,57.000000,,2013-05-19 00:32:00,
2013-05-18 18:41:00,38.0,35.0,-100.00,West,274,8.0,14.0,89,0.01,,,0.01,57.000000,,2013-05-19 00:41:00,
2013-05-18 18:51:00,38.0,35.0,-100.00,West,274,8.0,14.0,89,0.01,,,0.01,57.000000,,2013-05-19 00:51:00,
2013-05-18 18:52:00,39.0,35.0,-100.00,SW,223,7.0,19.0,87,0.01,,,0.02,132.000000,,2013-05-19 00:52:00,
2013-05-18 19:21:00,39.0,35.0,-100.00,SW,223,7.0,19.0,87,0.01,,,0.02,132.000000,,2013-05-19 01:21:00,
2013-05-18 19:32:00,39.0,35.0,-100.00,SW,223,7.0,19.0,87,0.01,,,0.02,132.000000,,2013-05-19 01:32:00,
2013-05-18 19:42:00,39.0,35.0,-100.00,SW,223,7.0,19.0,87,0.01,,,0.02,132.000000,,2013-05-19 01:42:00,
2013-05-18 19:52:00,38.0,33.0,-100.00,SW,225,8.0,13.0,83,0.00,,,0.02,157.000000,,2013-05-19 01:52:00,
2013-05-18 20:22:00,38.0,33.0,-100.00,SW,225,8.0,13.0,83,0.00,,,0.02,157.000000,,2013-05-19 02:22:00,
2013-05-18 20:32:00,38.0,33.0,-100.00,SW,225,8.0,13.0,83,0.00,,,0.02,157.000000,,2013-05-19 02:32:00,
2013-05-18 20:42:00,38.0,33.0,-100.00,SW,225,8.0,13.0,83,0.00,,,0.02,157.000000,,2013-05-19 02:42:00,
2013-05-18 20:52:00,37.0,34.0,-100.00,West,272,14.0,21.0,87,0.00,,,0.02,6.000000,,2013-05-19 02:52:00,
2013-05-18 21:11:00,37.0,34.0,-100.00,West,272,14.0,21.0,87,0.00,,,0.02,6.000000,,2013-05-19 03:11:00,
2013-05-18 21:22:00,37.0,34.0,-100.00,West,272,14.0,21.0,87,0.00,,,0.02,6.000000,,2013-05-19 03:22:00,
2013-05-18 21:33:00,37.0,34.0,-100.00,West,272,14.0,21.0,87,0.00,,,0.02,6.000000,,2013-05-19 03:33:00,
2013-05-18 21:42:00,37.0,34.0,-100.00,West,272,14.0,21.0,87,0.00,,,0.02,6.000000,,2013-05-19 03:42:00,
2013-05-18 21:52:00,34.0,33.0,-100.00,WSW,252,8.0,19.0,95,0.01,,,0.03,0.000000,,2013-05-19 03:52:00,
2013-05-18 22:12:00,34.0,33.0,-100.00,WSW,252,8.0,19.0,95,0.01,,,0.03,0.000000,,2013-05-19 04:12:00,
2013-05-18 22:23:00,34.0,33.0,-100.00,WSW,252,8.0,19.0,95,0.01,,,0.03,0.000000,,2013-05-19 04:23:00,
2013-05-18 22:33:00,34.0,33.0,-100.00,WSW,252,8.0,19.0,95,0.01,,,0.03,0.000000,,2013-05-19 04:33:00,
2013-05-18 22:42:00,34.0,33.0,-100.00,WSW,252,8.0,19.0,95,0.01,,,0.03,0.000000,,2013-05-19 04:42:00,
2013-05-18 23:12:00,34.0,32.0,-100.00,West,267,7.0,15.0,94,0.00,,,0.03,0.000000,,2013-05-19 05:12:00,
2013-05-18 23:22:00,34.0,32.0,-100.00,West,267,7.0,15.0,94,0.00,,,0.03,0.000000,,2013-05-19 05:22:00,
2013-05-18 23:32:00,34.0,32.0,-100.00,West,267,7.0,15.0,94,0.00,,,0.03,0.000000,,2013-05-19 05:32:00,
2013-05-18 23:42:00,34.0,32.0,-100.00,West,267,7.0,15.0,94,0.00,,,0.03,0.000000,,2013-05-19 05:42:00,
2013-05-18 23:51:00,34.0,32.0,-100.00,West,267,7.0,15.0,94,0.00,,,0.03,0.000000,,2013-05-19 05:51:00,
2013-05-18 23:52:00,33.0,31.0,-100.00,West,259,10.0,17.0,92,0.00,,,0.03,0.000000,,2013-05-19 05:52:00,